Date,TemperatureHighF,TemperatureAvgF,TemperatureLowF,DewpointHighF,DewpointAvgF,DewpointLowF,HumidityHigh,HumidityAvg,HumidityLow,PressureMaxIn,PressureMinIn,WindSpeedMaxMPH,WindSpeedAvgMPH,GustSpeedMaxMPH,PrecipitationSumIn
2013-1-1,50,45,38,31,24,12,68,45,25,29.73,29.59,15,3,15,0.00
2013-1-2,46,38,32,31,28,23,83,67,46,29.91,29.69,4,1,4,0.00
2013-1-3,47,34,29,23,14,7,68,45,23,29.94,29.84,6,2,7,0.00
2013-1-4,52,37,27,16,10,-4,60,35,10,29.93,29.81,10,4,14,0.00
2013-1-5,55,40,28,26,9,-4,58,31,10,30.06,29.88,6,2,12,0.02
2013-1-6,56,44,33,29,22,11,72,44,17,29.88,29.73,11,3,11,0.00
2013-1-7,56,41,29,25,21,10,85,47,16,30.13,29.84,8,2,8,0.00
2013-1-8,57,38,26,33,28,24,96,70,28,30.12,30.04,8,2,13,0.00
2013-1-9,61,46,28,46,37,28,99,74,44,30.09,29.97,13,2,13,0.00
2013-1-10,68,50,38,34,18,4,54,32,10,30.27,30.09,7,2,7,0.00
2013-1-11,43,42,38,43,35,22,99,78,46,30.17,29.80,7,2,12,0.07
2013-1-12,66,48,39,51,45,38,99,91,51,29.87,29.80,4,1,4,0.01
2013-1-13,66,50,48,60,48,46,93,92,81,29.83,29.68,9,1,15,0.01
2013-1-14,64,56,41,63,54,41,99,93,84,29.99,29.69,13,3,13,0.24
2013-1-15,41,38,37,40,38,36,99,99,99,30.02,29.82,5,2,8,0.91
2013-1-16,44,39,35,43,38,35,99,99,98,29.84,29.60,7,2,11,0.19
2013-1-17,44,36,33,44,36,32,99,99,99,29.82,29.73,12,1,12,0.63
2013-1-18,46,35,28,33,23,6,99,68,20,30.18,29.81,5,1,51,0.13
2013-1-19,56,42,30,23,19,-1,75,42,10,30.12,29.72,104,8,104,0.00
2013-1-20,64,48,37,23,8,-11,53,23,10,29.76,29.57,17,5,17,0.33
2013-1-21,58,41,29,10,-4,-18,41,16,10,29.77,29.48,14,4,48,0.00
2013-1-22,34,24,14,-11,-18,-28,30,15,10,29.97,29.64,11,4,12,0.00
2013-1-23,38,19,10,16,-10,-21,79,31,10,30.02,29.80,6,1,8,0.00
2013-1-24,35,22,12,17,-2,-23,92,47,10,30.22,29.74,12,4,17,0.00
2013-1-25,23,17,12,16,5,-16,83,61,17,30.21,29.74,8,2,8,0.00
2013-1-26,38,28,19,20,17,-14,90,67,10,30.12,29.75,7,1,7,3.12
2013-1-27,33,28,26,19,19,18,74,70,53,30.25,29.81,8,2,10,0.00
2013-1-28,52,40,31,44,34,18,99,79,55,29.82,29.45,11,3,15,0.06
2013-1-29,79,60,43,52,44,40,99,63,26,29.49,29.34,10,3,11,0.00
2013-1-30,71,63,57,65,59,52,99,87,71,29.34,28.62,19,7,19,1.46
2013-1-31,62,42,10,62,13,-10,99,35,10,30.27,28.64,23,9,27,0.28
2013-2-1,34,28,17,26,-7,-22,87,25,10,30.72,30.13,17,6,17,0.00
2013-2-2,35,24,15,26,6,-12,97,52,13,30.72,30.34,9,2,13,0.05
2013-2-3,45,32,24,30,19,2,97,65,27,30.34,30.17,8,2,13,0.02
2013-2-4,38,32,20,13,5,-2,61,33,19,30.45,30.24,15,3,15,0.00
2013-2-5,59,44,31,26,18,8,56,37,13,30.26,30.17,14,4,14,0.00
2013-2-6,60,41,22,33,19,2,97,53,10,30.68,30.27,49,4,49,0.38
2013-2-7,41,36,28,26,20,14,82,56,33,30.76,30.56,4,1,4,0.00
2013-2-8,57,44,33,41,28,13,99,58,36,30.32,30.12,14,3,17,0.33
2013-2-9,92,39,27,50,1,-13,42,22,10,30.71,30.33,11,4,18,0.00
2013-2-10,50,36,27,44,3,-10,95,27,10,30.82,29.77,8,2,10,14.69
2013-2-11,58,48,35,52,38,0,99,77,10,29.83,29.39,14,5,17,0.06
2013-2-12,67,52,44,18,6,-3,35,17,10,29.59,29.44,14,4,17,0.00
2013-2-13,45,39,33,37,26,15,99,61,31,29.54,29.26,4,1,6,0.06
2013-2-14,58,41,28,36,20,0,99,57,10,29.62,29.40,9,2,9,0.00
2013-2-15,67,46,29,38,22,4,94,49,10,29.65,29.47,11,3,16,0.06
2013-2-16,40,36,27,38,24,4,99,68,32,29.61,29.45,5,2,11,0.02
2013-2-17,78,27,18,17,-9,-21,48,23,10,29.83,29.48,102,6,102,0.00
2013-2-18,51,34,17,10,-3,-16,46,23,10,29.96,29.76,8,3,12,0.00
2013-2-19,49,40,36,42,25,0,96,61,16,29.76,29.36,106,6,106,0.11
2013-2-20,50,38,28,3,-3,-12,33,19,10,29.75,29.48,10,4,16,0.00
2013-2-21,52,35,22,9,2,-10,55,28,10,29.92,29.73,8,2,10,0.00
2013-2-22,39,34,31,27,16,-16,74,48,10,29.96,29.80,4,1,6,0.01
2013-2-23,57,38,32,40,33,6,99,83,31,29.80,29.43,49,2,99,0.01
2013-2-24,64,46,34,45,22,-4,99,56,10,29.71,29.42,9,3,52,0.01
2013-2-25,50,35,24,17,8,-7,66,36,10,29.84,29.71,5,2,7,0.00
2013-2-26,41,33,26,41,29,16,99,85,63,29.81,29.19,5,2,7,0.98
2013-2-27,60,48,36,44,30,13,99,58,16,29.32,29.17,15,4,15,0.01
2013-2-28,50,42,35,31,19,3,71,41,14,29.38,29.25,12,4,14,0.00
2013-3-1,44,38,33,24,19,15,69,47,32,29.52,29.37,11,2,11,0.00
2013-3-2,40,35,31,19,14,8,59,41,30,29.52,29.44,6,2,9,0.00
2013-3-3,50,35,25,15,5,-7,65,32,10,29.55,29.41,11,3,13,0.00
2013-3-4,56,37,24,4,-3,-13,40,20,10,29.65,29.55,11,4,14,0.00
2013-3-5,54,40,31,34,11,-8,99,37,10,29.67,29.34,7,2,8,0.11
2013-3-6,32,32,32,32,32,32,99,99,99,29.34,29.20,0,0,0,0.00
2013-3-7,55,39,30,28,20,3,83,49,12,29.81,29.63,18,4,18,0.00
2013-3-8,51,40,31,25,18,9,76,44,18,29.90,29.78,18,5,18,0.00
2013-3-9,67,44,29,26,17,1,84,49,10,29.94,29.86,5,2,5,0.00
2013-3-10,69,54,32,26,10,-3,77,24,10,29.92,29.67,12,3,12,0.00
2013-3-11,66,53,32,50,32,-18,77,48,10,29.82,29.51,10,4,12,0.01
2013-3-12,69,54,1,59,40,-29,99,65,20,29.57,29.32,8,5,13,0.94
2013-3-13,54,42,32,27,11,-6,78,34,10,29.71,29.52,12,4,17,0.00
2013-3-14,55,38,29,8,0,-11,37,23,10,29.77,29.65,12,4,16,0.00
2013-3-15,63,46,-10,17,3,-51,39,18,10,29.73,29.41,10,4,12,0.01
2013-3-16,72,54,43,56,35,16,98,54,21,29.43,29.22,11,3,11,0.20
2013-3-17,50,38,32,39,36,-4,99,93,10,29.87,29.49,5,1,5,0.09
2013-3-18,34,33,32,34,32,-18,99,98,10,29.88,29.50,4,0,4,0.25
2013-3-19,66,42,32,33,18,-9,99,61,10,29.58,29.34,20,4,24,0.13
2013-3-20,58,45,33,9,-6,-16,32,12,10,29.63,29.37,16,5,17,0.00
2013-3-21,44,35,26,27,2,-15,87,32,10,29.55,29.37,14,4,16,0.00
2013-3-22,56,38,24,8,-2,-11,41,21,10,29.61,29.49,9,4,15,0.00
2013-3-23,64,43,26,17,6,-7,59,26,10,29.66,29.50,11,2,11,0.00
2013-3-24,43,36,32,32,19,5,99,58,21,29.61,29.25,6,1,100,0.00
2013-3-25,45,35,31,38,33,30,99,93,64,29.33,29.14,6,1,6,0.11
2013-3-26,52,41,30,32,22,11,93,52,21,29.65,29.33,13,3,13,0.00
2013-3-27,53,41,32,26,14,0,71,39,13,29.78,29.65,14,4,16,0.19
2013-3-28,55,43,32,31,12,-2,63,32,10,29.86,29.74,20,4,20,0.33
2013-3-29,66,47,33,29,15,-2,71,35,10,29.89,29.75,8,2,9,0.00
2013-3-30,70,52,32,27,13,0,70,28,10,29.84,29.68,8,2,11,0.00
2013-3-31,56,46,41,51,38,6,99,75,15,29.70,29.37,9,2,9,0.08
2013-4-1,67,54,42,48,26,6,99,42,10,29.61,29.39,18,5,51,0.00
2013-4-2,59,45,2,8,-1,-42,36,16,10,29.78,29.61,10,4,13,0.09
2013-4-3,62,41,28,9,1,-14,42,22,10,29.95,29.78,11,3,14,0.00
2013-4-4,51,37,27,35,7,-9,98,37,10,30.02,29.66,11,2,12,0.20
2013-4-5,73,50,35,41,25,4,99,54,10,29.66,29.46,8,2,11,0.15
2013-4-6,67,51,34,23,8,-3,44,21,10,29.92,29.65,9,3,12,0.00
2013-4-7,77,59,40,30,20,9,49,25,10,29.86,29.61,13,6,23,0.00
2013-4-8,85,61,-18,43,24,-57,68,29,10,29.70,29.56,12,4,12,0.00
2013-4-9,90,76,-15,48,34,-46,68,26,10,29.72,29.57,11,4,14,0.00
2013-4-10,95,81,68,60,36,24,45,24,10,29.62,29.43,11,5,14,0.00
2013-4-11,90,76,60,78,46,28,83,40,12,29.50,29.34,12,4,12,0.00
2013-4-12,86,71,-4,66,46,-42,99,54,10,29.35,29.16,13,5,13,0.47
2013-4-13,78,63,4,37,17,-22,63,21,10,29.57,29.34,13,3,13,0.01
2013-4-14,80,66,49,33,17,5,37,17,10,29.71,29.57,8,3,100,0.00
2013-4-15,65,55,38,60,49,30,99,83,37,29.88,29.69,97,7,97,0.18
2013-4-16,78,64,54,59,53,-1,99,73,10,29.92,29.77,103,3,103,0.00
2013-4-17,87,70,39,62,50,10,88,58,19,29.83,29.70,7,2,9,0.38
2013-4-18,82,69,60,65,56,40,99,68,23,29.81,29.59,9,3,102,0.08
2013-4-19,77,68,55,68,61,43,99,81,57,29.59,29.22,20,5,45,0.40
2013-4-20,70,56,43,39,16,-8,53,25,10,29.92,29.37,97,4,97,0.01
2013-4-21,62,49,38,25,15,-10,56,28,10,30.17,29.92,25,3,25,0.00
2013-4-22,65,50,28,36,26,15,95,46,14,30.15,29.95,49,3,49,0.00
2013-4-23,71,56,45,44,36,30,85,51,22,29.97,29.72,7,2,8,0.00
2013-4-24,82,64,46,56,44,31,97,55,16,29.74,29.44,20,4,20,0.04
2013-4-25,75,60,44,54,22,6,87,29,10,29.91,29.59,8,3,14,0.00
2013-4-26,74,57,39,32,21,11,72,35,10,30.06,29.91,5,3,6,0.00
2013-4-27,79,62,44,45,30,13,84,37,10,30.01,29.85,6,2,9,0.00
2013-4-28,61,54,8,52,42,-8,90,63,39,29.88,29.73,9,2,49,0.06
2013-4-29,69,58,52,62,55,45,99,91,63,29.76,29.61,4,2,7,0.35
2013-4-30,68,59,54,58,55,54,99,88,63,29.88,29.68,6,2,8,0.02
2013-5-1,77,63,52,55,38,12,99,53,10,30.00,29.86,8,2,10,0.01
2013-5-2,78,60,46,47,38,3,88,49,10,30.02,29.90,9,2,100,0.00
2013-5-3,73,58,43,53,40,17,99,60,12,29.97,29.85,9,2,52,0.00
2013-5-4,64,49,40,45,41,37,95,76,43,29.91,29.82,4,1,6,0.00
2013-5-5,106,50,39,82,35,21,89,61,24,29.83,29.71,100,3,100,0.00
2013-5-6,60,55,50,60,53,-1,99,93,10,29.75,29.58,8,3,50,0.27
2013-5-7,71,60,54,65,59,53,99,97,77,29.59,29.47,10,2,52,1.09
2013-5-8,67,58,52,62,56,51,99,93,68,29.62,29.55,6,1,8,0.09
2013-5-9,85,63,46,64,52,41,99,73,22,29.64,29.56,5,1,8,0.04
2013-5-10,89,72,0,62,49,-2,99,56,12,29.65,29.48,13,2,13,0.05
2013-5-11,86,72,63,63,57,42,96,63,22,29.51,29.33,11,3,14,0.00
2013-5-12,73,62,-4,56,27,-47,76,35,10,29.67,29.38,11,3,13,0.00
2013-5-13,66,52,38,36,19,3,72,35,10,29.79,29.66,8,2,10,0.00
2013-5-14,76,57,33,38,22,9,90,37,10,29.84,29.63,7,2,11,0.00
2013-5-15,92,72,50,55,44,30,73,40,19,29.64,29.34,11,3,15,0.00
2013-5-16,93,76,64,69,48,26,99,51,10,29.57,29.43,8,2,8,0.47
2013-5-17,89,74,59,66,54,26,99,62,11,29.74,29.55,6,2,9,0.40
2013-5-18,68,63,41,65,62,36,99,98,35,29.82,29.71,4,1,7,0.18
2013-5-19,71,64,60,69,64,60,99,98,92,29.81,29.69,3,1,6,0.07
2013-5-20,88,73,65,71,67,59,99,84,39,29.73,29.59,8,2,8,0.00
2013-5-21,91,77,66,73,68,60,99,77,36,29.63,29.50,6,3,8,0.00
2013-5-22,92,79,67,74,66,57,99,69,31,29.57,29.45,11,3,11,0.04
2013-5-23,86,71,62,71,65,59,99,85,40,29.52,29.37,8,3,29,0.72
2013-5-24,68,61,48,62,49,18,99,73,17,29.79,29.39,14,2,21,0.01
2013-5-25,76,57,37,34,24,11,85,35,10,29.87,29.73,15,3,15,0.00
2013-5-26,84,62,43,42,27,10,85,36,10,29.87,29.73,6,1,8,0.08
2013-5-27,72,59,42,56,43,32,91,62,23,29.90,29.79,2,0,4,0.00
2013-5-28,90,64,51,63,54,49,99,76,25,29.82,29.67,59,2,59,0.00
2013-5-29,94,80,-22,64,56,-61,88,49,10,29.75,29.69,11,3,12,0.00
2013-5-30,96,82,-20,63,54,-40,65,42,11,29.81,29.73,103,4,103,0.01
2013-5-31,93,80,39,62,54,-13,91,46,10,29.78,29.65,12,3,12,0.00
2013-6-1,94,82,70,63,58,52,80,46,25,29.68,29.55,11,4,14,0.11
2013-6-2,84,76,70,68,65,59,92,70,55,29.57,29.48,11,4,15,0.00
2013-6-3,90,76,67,72,65,52,99,73,28,29.58,29.43,7,1,8,0.47
2013-6-4,85,70,58,65,43,16,99,52,10,29.75,29.58,8,2,8,0.00
2013-6-5,84,72,56,58,51,44,83,52,28,29.78,29.65,4,2,12,0.00
2013-6-6,68,64,62,65,59,36,99,83,35,29.66,29.46,8,2,10,2.06
2013-6-7,71,66,64,71,66,64,99,99,99,29.46,29.23,6,1,6,0.67
2013-6-8,91,74,62,69,60,44,99,70,20,29.69,29.39,8,1,8,0.05
2013-6-9,88,73,62,72,67,61,99,84,46,29.80,29.67,4,1,8,0.59
2013-6-10,86,73,68,75,70,66,99,93,52,29.71,29.42,11,4,18,0.64
2013-6-11,90,77,67,69,60,49,99,63,26,29.51,29.44,10,3,11,0.00
2013-6-12,98,82,65,74,63,54,96,59,24,29.52,29.42,6,2,9,0.00
2013-6-13,92,79,71,73,67,54,99,72,28,29.43,29.16,6,2,20,0.09
2013-6-14,87,76,60,56,46,32,85,39,15,29.62,29.49,5,2,8,0.00
2013-6-15,92,75,56,58,48,30,93,48,11,29.72,29.60,6,2,8,0.00
2013-6-16,90,76,61,70,60,51,97,64,28,29.65,29.54,8,2,14,0.02
2013-6-17,93,75,65,71,65,56,99,78,30,29.59,29.51,6,2,7,0.43
2013-6-18,82,70,64,74,69,64,99,96,65,29.55,29.41,8,1,8,0.35
2013-6-19,82,70,61,70,64,57,99,84,42,29.76,29.50,6,1,8,0.01
2013-6-20,86,73,66,67,59,43,99,66,29,29.88,29.76,8,2,8,0.00
2013-6-21,89,74,58,57,50,34,85,50,18,29.91,29.83,4,1,8,0.00
2013-6-22,93,76,61,70,63,48,99,71,22,29.88,29.74,8,2,8,0.00
2013-6-23,93,80,68,73,67,56,99,71,29,29.81,29.70,5,1,9,0.07
2013-6-24,94,80,69,74,69,60,99,74,35,29.77,29.67,10,1,11,0.15
2013-6-25,99,83,68,73,66,57,99,62,26,29.68,29.54,8,2,51,0.02
2013-6-26,96,78,68,74,68,58,99,76,29,29.56,29.47,9,2,10,0.48
2013-6-27,89,76,66,75,69,63,99,81,43,29.48,29.27,8,2,15,0.01
2013-6-28,96,83,69,71,62,41,93,55,16,29.29,29.10,10,3,18,0.00
2013-6-29,94,80,63,68,57,41,94,52,19,29.32,29.17,8,2,10,0.00
2013-6-30,89,75,68,73,69,66,99,83,47,29.47,29.31,7,2,9,0.21
2013-7-1,88,76,70,74,71,66,99,84,49,29.59,29.46,8,2,8,0.12
2013-7-2,80,74,71,73,72,70,99,91,73,29.78,29.58,6,2,13,0.37
2013-7-3,90,76,71,78,73,67,99,91,49,29.85,29.76,5,2,11,1.84
2013-7-4,94,78,72,76,72,61,99,84,35,29.88,29.78,11,3,11,0.01
2013-7-5,93,81,72,74,71,63,99,73,38,29.86,29.75,8,3,13,0.00
2013-7-6,93,83,72,76,69,58,99,68,32,29.82,29.71,10,2,10,0.00
2013-7-7,92,80,70,73,69,63,99,73,39,29.75,29.63,11,3,16,0.01
2013-7-8,91,76,68,76,69,54,99,82,30,29.75,29.69,4,1,12,0.00
2013-7-9,93,80,69,77,71,65,99,77,44,29.73,29.64,7,1,9,0.01
2013-7-10,93,79,72,77,74,69,99,87,49,29.65,29.51,8,2,14,0.15
2013-7-11,91,78,72,76,72,65,99,84,42,29.54,29.48,8,2,10,0.40
2013-7-12,74,69,66,72,68,66,99,98,90,29.67,29.51,10,1,14,0.43
2013-7-13,90,77,64,77,69,64,99,81,45,29.86,29.66,4,1,7,0.12
2013-7-14,94,81,70,78,70,60,99,74,32,29.95,29.86,8,1,8,0.00
2013-7-15,99,84,70,78,70,58,99,70,27,29.93,29.84,4,1,6,0.00
2013-7-16,101,86,72,77,71,65,99,68,34,29.87,29.78,4,1,8,0.00
2013-7-17,100,85,73,80,73,61,99,71,28,29.85,29.73,4,1,5,0.76
2013-7-18,101,78,-15,80,65,-17,99,71,31,29.77,29.64,6,1,6,0.00
2013-7-19,100,89,74,78,73,65,99,62,33,29.66,29.53,102,29,102,0.00
2013-7-20,97,84,77,75,70,63,94,66,35,29.56,29.47,11,3,12,0.01
2013-7-21,95,79,70,75,70,63,99,77,37,29.60,29.51,8,1,11,0.44
2013-7-22,93,80,71,77,72,68,99,81,45,29.57,29.40,7,2,8,0.00
2013-7-23,97,83,72,74,67,56,99,66,27,29.40,29.29,5,2,102,0.00
2013-7-24,91,78,68,74,68,62,99,75,38,29.53,29.31,4,1,7,0.07
2013-7-25,86,73,61,68,57,48,99,65,31,29.67,29.52,6,2,8,0.00
2013-7-26,88,74,57,66,57,46,99,62,26,29.73,29.63,4,1,8,0.00
2013-7-27,84,74,66,70,67,63,99,79,56,29.66,29.54,8,2,10,0.05
2013-7-28,91,75,67,74,68,58,99,81,33,29.60,29.51,11,2,11,0.61
2013-7-29,92,75,61,71,58,35,99,66,15,29.78,29.60,4,1,4,0.02
2013-7-30,88,73,57,64,57,42,99,64,22,29.86,29.76,5,1,6,0.00
2013-7-31,83,71,0,70,66,0,99,84,50,29.77,29.63,5,1,49,0.00
2013-8-1,91,73,66,75,69,60,99,91,38,29.63,29.45,4,1,98,0.00
2013-8-2,92,78,63,72,61,50,99,63,26,29.60,29.50,6,1,99,0.00
2013-8-3,90,75,65,70,64,56,99,73,34,29.61,29.54,4,1,6,0.00
2013-8-4,89,74,60,70,56,41,99,62,19,29.68,29.55,7,2,8,0.00
2013-8-5,85,71,55,63,55,41,99,64,22,29.74,29.62,6,1,7,0.00
2013-8-6,83,74,65,70,65,59,99,77,52,29.65,29.60,7,2,8,0.01
2013-8-7,88,65,35,76,53,17,99,73,10,29.68,29.62,30,4,30,0.76
2013-8-8,88,78,72,74,70,22,93,79,10,29.65,29.60,11,2,11,0.00
2013-8-9,96,82,-37,74,68,-73,94,67,10,29.61,29.51,8,3,11,0.00
2013-8-10,91,78,70,77,72,69,99,82,54,29.73,29.58,4,1,52,0.02
2013-8-11,99,76,70,84,71,69,99,88,60,29.75,29.63,4,1,4,0.20
2013-8-12,97,81,68,76,67,12,99,69,10,29.65,29.54,4,1,5,0.00
2013-8-13,92,77,48,73,70,47,99,82,40,29.55,29.39,8,2,9,0.07
2013-8-14,86,74,40,70,51,38,99,53,26,29.74,29.44,9,3,9,0.00
2013-8-15,86,79,60,56,50,37,85,41,20,29.81,29.70,4,2,8,0.00
2013-8-16,83,68,-18,62,51,-41,99,63,28,29.83,29.74,51,2,51,0.94
2013-8-17,81,63,-16,65,55,-30,99,81,42,29.88,29.80,98,6,98,0.01
2013-8-18,68,63,42,67,62,-11,99,96,10,29.87,29.80,5,1,5,0.97
2013-8-19,79,68,60,70,65,60,99,92,67,29.82,29.69,8,1,8,0.04
2013-8-20,91,77,64,74,67,27,99,76,10,29.80,29.71,6,1,6,0.09
2013-8-21,92,80,68,75,68,16,99,72,10,29.83,29.71,8,2,8,0.00
2013-8-22,93,78,67,72,66,58,99,73,33,29.73,29.59,4,1,5,0.04
2013-8-23,77,68,61,75,67,61,99,99,88,29.75,29.57,6,1,8,0.60
2013-8-24,88,70,55,69,56,40,99,70,20,29.95,29.75,8,1,8,0.00
2013-8-25,88,72,57,65,57,47,99,67,24,30.02,29.89,3,1,8,0.00
2013-8-26,91,75,59,64,57,47,99,60,23,29.93,29.65,5,1,7,0.00
2013-8-27,95,77,64,73,64,58,94,69,29,29.66,29.54,4,1,6,0.00
2013-8-28,77,73,70,74,71,66,99,92,84,29.59,29.43,4,1,6,0.24
2013-8-29,89,77,68,75,70,64,99,82,47,29.64,29.44,6,1,9,0.01
2013-8-30,91,77,67,75,67,61,99,73,38,29.66,29.52,8,2,11,0.00
2013-8-31,95,78,69,72,67,64,99,74,39,29.55,29.42,6,2,11,0.44
2013-9-1,94,76,66,75,69,65,99,82,39,29.49,29.40,3,1,7,0.01
2013-9-2,95,82,69,76,67,56,99,66,28,29.45,29.37,6,2,9,0.00
2013-9-3,92,78,68,71,66,58,99,71,33,29.58,29.39,51,2,51,0.00
2013-9-4,88,72,57,67,58,48,99,68,26,29.72,29.58,5,1,7,0.00
2013-9-5,93,74,57,68,55,37,99,63,15,29.74,29.62,3,1,6,0.00
2013-9-6,85,67,54,54,48,32,87,56,16,29.87,29.74,8,1,8,0.00
2013-9-7,86,69,54,63,55,51,99,68,31,29.76,29.56,6,1,11,0.00
2013-9-8,96,76,61,68,61,50,99,67,22,29.64,29.50,4,1,11,0.00
2013-9-9,83,71,65,69,61,53,99,73,38,29.82,29.64,4,1,5,0.19
2013-9-10,96,79,65,74,67,62,99,70,33,29.80,29.72,4,1,7,0.00
2013-9-11,97,82,69,76,68,64,99,67,35,29.77,29.64,6,1,8,0.00
2013-9-12,96,80,69,75,67,59,99,69,31,29.64,29.38,10,1,11,0.00
2013-9-13,86,72,56,64,51,32,89,55,15,29.57,29.36,9,2,9,0.00
2013-9-14,77,60,-11,55,41,-38,99,60,15,29.79,29.57,7,1,8,0.18
2013-9-15,82,63,46,59,48,41,99,66,25,29.86,29.70,9,2,13,0.00
2013-9-16,76,63,54,66,57,52,99,82,46,29.85,29.68,4,1,100,0.00
2013-9-17,76,59,47,55,45,19,99,67,12,30.03,29.85,6,2,10,0.00
2013-9-18,78,58,41,55,43,32,99,67,20,29.95,29.80,4,1,7,0.00
2013-9-19,82,64,50,57,51,46,92,67,35,29.82,29.69,8,1,8,0.00
2013-9-20,82,67,56,63,59,54,99,77,43,29.72,29.56,4,1,6,0.00
2013-9-21,69,66,61,68,65,61,99,96,81,29.56,29.31,8,2,11,0.40
2013-9-22,82,66,54,67,52,34,99,70,19,29.58,29.36,4,1,7,0.01
2013-9-23,77,59,45,53,42,28,99,62,17,29.73,29.58,6,1,8,0.00
2013-9-24,84,61,48,55,47,38,98,68,22,29.73,29.56,4,1,6,0.00
2013-9-25,79,61,49,59,50,38,99,73,25,29.61,29.50,4,1,6,0.00
2013-9-26,83,64,52,57,48,26,93,65,13,29.69,29.53,4,1,8,0.00
2013-9-27,80,62,49,61,51,43,99,72,29,29.84,29.69,5,1,8,0.00
2013-9-28,69,61,54,58,54,49,99,79,50,29.92,29.83,3,1,6,0.00
2013-9-29,82,62,49,62,48,31,99,69,17,29.83,29.67,5,1,6,0.00
2013-9-30,82,63,49,60,50,40,99,70,23,29.72,29.59,6,1,6,0.00
2013-10-1,90,68,55,60,53,32,97,69,13,29.72,29.61,4,1,4,0.00
2013-10-2,92,71,57,62,52,30,99,63,12,29.73,29.63,4,1,8,0.00
2013-10-3,89,70,58,64,59,46,99,74,23,29.75,29.66,6,1,6,0.00
2013-10-4,95,73,60,68,58,42,99,70,17,29.73,29.64,3,1,5,0.00
2013-10-5,92,80,62,72,56,49,99,54,23,29.72,29.62,4,2,7,0.00
2013-10-6,92,77,-13,70,56,-20,99,55,19,29.64,29.53,11,3,14,0.05
2013-10-7,73,67,52,71,61,46,99,81,50,29.68,29.40,12,3,14,0.96
2013-10-8,72,56,45,51,43,28,96,68,20,29.89,29.68,5,1,49,0.00
2013-10-9,60,54,49,52,48,44,99,81,63,29.92,29.81,9,1,14,0.34
2013-10-10,61,56,51,60,56,51,99,99,96,29.81,29.60,7,2,103,1.56
2013-10-11,65,60,56,63,59,56,99,97,88,29.62,29.56,4,1,5,0.32
2013-10-12,64,62,59,64,62,59,99,99,99,29.77,29.59,8,2,8,0.15
2013-10-13,62,59,58,62,59,58,99,99,99,29.91,29.75,7,2,8,0.25
2013-10-14,76,61,52,60,55,48,99,84,39,29.94,29.83,6,1,49,0.00
2013-10-15,79,59,-5,60,48,-19,99,74,23,29.85,29.71,6,1,6,0.01
2013-10-16,77,65,58,59,56,53,91,74,46,29.72,29.55,6,1,8,0.00
2013-10-17,73,56,-2,62,43,-45,96,67,10,29.55,29.36,61,10,61,0.02
2013-10-18,74,59,48,49,36,13,78,51,10,29.65,29.46,5,1,6,0.19
2013-10-19,74,54,5,59,44,-40,96,75,10,29.62,29.42,98,2,98,0.00
2013-10-20,72,53,39,42,29,8,79,49,10,29.73,29.51,5,1,8,0.00
2013-10-21,73,53,30,44,31,-20,92,52,10,29.77,29.58,97,3,97,0.00
2013-10-22,75,58,9,48,37,-34,88,50,10,29.58,29.41,8,2,102,0.04
2013-10-23,66,45,11,45,28,-34,90,56,10,29.56,29.30,8,2,8,0.31
2013-10-24,58,46,35,30,20,5,66,39,12,29.78,29.56,9,3,13,0.00
2013-10-25,63,46,31,26,12,-1,76,35,10,29.94,29.76,7,2,10,0.00
2013-10-26,61,48,28,30,12,-1,81,32,10,29.94,29.58,11,4,13,0.00
2013-10-27,69,52,38,39,27,9,72,45,10,29.75,29.59,8,2,9,0.00
2013-10-28,76,54,46,39,31,13,76,45,10,29.88,29.75,49,0,49,7.84
2013-10-29,75,53,40,43,38,23,90,63,14,29.99,29.88,91,3,91,10.27
2013-10-30,78,60,50,53,47,42,76,64,32,29.93,29.74,6,0,49,9.52
2013-10-31,77,64,53,64,54,52,99,69,56,29.79,29.41,0,0,0,11.88
2013-11-1,83,67,58,59,55,9,92,67,10,29.41,29.22,12,2,15,0.72
2013-11-2,110,63,48,57,27,4,99,37,10,29.53,29.28,11,3,11,0.00
2013-11-3,68,52,39,32,17,-4,60,28,10,30.02,29.53,10,2,27,0.57
2013-11-4,53,39,31,24,13,-8,64,39,10,30.22,30.02,9,1,9,0.00
2013-11-5,58,44,10,39,26,-17,74,53,10,30.22,30.08,24,1,24,0.00
2013-11-6,73,57,48,49,42,38,87,60,28,30.08,29.69,8,2,11,0.00
2013-11-7,69,57,43,54,36,9,79,51,10,29.72,29.51,11,4,28,0.01
2013-11-8,60,44,32,19,10,-5,56,29,10,29.93,29.72,11,3,13,0.00
2013-11-9,64,44,26,26,13,0,78,37,10,29.97,29.68,12,3,18,0.00
2013-11-10,74,53,14,21,11,-25,46,21,10,29.87,29.57,12,4,14,0.01
2013-11-11,66,48,34,22,10,-2,56,26,10,29.93,29.64,10,4,14,0.00
2013-11-12,54,41,28,25,5,-10,40,23,10,30.02,29.57,15,5,16,0.00
2013-11-13,52,34,-17,9,1,-36,47,27,10,30.10,30.00,15,3,15,0.00
2013-11-14,69,45,24,16,3,-8,56,22,10,30.00,29.84,11,2,11,0.00
2013-11-15,67,49,28,44,12,-18,83,29,10,29.89,29.78,27,2,27,0.30
2013-11-16,59,50,45,50,46,43,97,86,66,29.92,29.83,2,0,4,0.17
2013-11-17,60,56,51,60,55,50,99,97,92,29.84,29.40,12,2,14,0.05
2013-11-18,72,60,49,62,22,-5,99,34,10,29.58,29.35,12,5,19,0.07
2013-11-19,58,43,32,19,12,0,57,32,10,29.97,29.58,9,2,12,0.00
2013-11-20,55,38,30,21,16,-3,66,46,10,30.14,29.97,7,1,11,0.00
2013-11-21,50,41,32,36,29,20,74,63,47,30.16,30.00,4,0,4,0.00
2013-11-22,70,59,45,50,44,36,73,59,41,30.00,29.63,13,3,104,0.00
2013-11-23,65,50,34,49,14,-11,71,31,10,29.82,29.63,11,4,19,0.00
2013-11-24,39,27,18,10,-12,-23,37,19,10,30.13,29.82,14,5,14,0.00
2013-11-25,44,29,16,8,-8,-27,51,24,10,30.16,29.94,10,3,11,0.00
2013-11-26,41,34,33,41,19,-16,99,64,10,29.95,29.21,6,2,11,1.50
2013-11-27,42,38,28,41,26,1,99,67,30,29.71,29.14,12,4,16,0.47
2013-11-28,48,32,20,13,4,-12,60,34,10,30.05,29.70,6,2,10,0.00
2013-11-29,53,32,14,19,10,-5,74,46,10,30.30,30.03,4,1,6,0.00
2013-11-30,45,29,0,18,13,-27,89,56,10,30.30,29.96,4,1,6,0.00
2013-12-1,56,36,20,25,18,0,82,54,11,29.96,29.62,3,1,49,0.00
2013-12-2,48,42,37,29,27,24,67,55,41,29.62,29.47,3,0,24,0.00
2013-12-3,64,44,33,35,29,21,78,59,19,29.61,29.49,5,1,6,0.00
2013-12-4,66,52,41,50,42,34,85,70,44,29.67,29.59,8,2,97,0.00
2013-12-5,75,60,55,60,55,15,97,84,10,29.68,29.56,16,4,17,0.00
2013-12-6,82,53,11,78,51,10,99,93,82,29.75,29.51,53,4,53,0.78
2013-12-7,45,38,28,40,31,3,98,79,25,30.11,29.73,6,2,7,0.15
2013-12-8,32,30,28,30,23,17,93,76,58,30.14,29.88,5,1,56,0.01
2013-12-9,44,35,32,37,33,30,99,92,72,29.90,29.62,4,0,24,0.05
2013-12-10,45,34,30,41,27,6,99,80,32,29.83,29.59,10,2,13,0.22
2013-12-11,51,36,25,15,4,-11,61,29,10,29.99,29.83,8,2,9,0.00
2013-12-12,45,32,25,13,-5,-21,48,23,10,30.01,29.84,8,2,9,0.00
2013-12-13,54,37,28,10,-5,-20,37,18,10,29.90,29.81,11,3,14,0.00
2013-12-14,36,34,31,34,26,5,94,73,38,29.90,29.35,5,1,5,0.39
2013-12-15,54,41,34,39,23,7,99,57,16,29.58,29.26,11,4,15,0.01
2013-12-16,45,38,30,23,19,11,66,47,25,29.75,29.56,8,2,11,0.00
2013-12-17,57,36,25,32,25,19,83,65,31,29.73,29.51,7,1,14,0.00
2013-12-18,50,36,28,28,9,-11,89,38,10,29.82,29.60,9,2,14,0.00
2013-12-19,71,48,30,17,5,-4,47,22,10,29.80,29.70,9,3,12,0.02
2013-12-20,66,54,44,27,12,-3,34,20,10,29.75,29.62,11,4,32,0.05
2013-12-21,72,61,51,55,44,27,69,54,34,29.66,29.55,15,5,17,0.43
2013-12-22,70,65,61,61,57,52,86,75,54,29.63,29.49,14,5,21,0.17
2013-12-23,63,56,37,63,50,22,99,82,48,29.83,29.55,8,3,11,0.50
2013-12-24,46,32,22,25,10,-12,80,45,10,30.07,29.81,10,2,49,0.00
2013-12-25,41,25,15,9,-1,-14,64,36,10,30.16,29.96,6,2,10,0.00
2013-12-26,55,35,25,10,3,-9,45,29,10,29.97,29.81,9,3,16,0.00
2013-12-27,93,41,27,68,2,-10,48,23,10,30.03,29.92,5,2,49,0.00
2013-12-28,67,46,27,23,6,-5,58,25,10,29.95,29.73,8,2,10,0.00
2013-12-29,58,45,41,50,36,4,98,73,15,29.73,29.20,9,2,9,1.07
2013-12-30,52,42,33,35,28,20,71,56,28,29.77,29.45,4,1,8,0.00
2013-12-31,52,36,26,25,10,-10,82,43,10,29.93,29.74,18,3,24,0.00
2014-1-1,57,37,24,18,10,-2,64,37,10,29.99,29.71,8,2,10,0.00
2014-1-2,41,33,28,29,22,15,88,65,44,29.71,29.23,3,1,4,0.11